sensor_id;sensor_type;location;lat;lon;timestamp;temperature;humidity
42245;DHT22;27912;51.828;5.688;2022-09-13T00:00:04;18.00;99.90
42245;DHT22;27912;51.828;5.688;2022-09-13T00:02:31;18.00;99.90
42245;DHT22;27912;51.828;5.688;2022-09-13T00:04:56;18.00;99.90
42245;DHT22;27912;51.828;5.688;2022-09-13T00:07:22;18.00;99.90
42245;DHT22;27912;51.828;5.688;2022-09-13T00:09:48;18.10;99.90
42245;DHT22;27912;51.828;5.688;2022-09-13T00:12:14;18.00;99.90
42245;DHT22;27912;51.828;5.688;2022-09-13T00:14:40;18.10;99.90
42245;DHT22;27912;51.828;5.688;2022-09-13T00:17:06;18.10;99.90
42245;DHT22;27912;51.828;5.688;2022-09-13T00:19:32;18.00;99.90
42245;DHT22;27912;51.828;5.688;2022-09-13T00:21:57;18.00;99.90
42245;DHT22;27912;51.828;5.688;2022-09-13T00:24:23;18.00;99.90
42245;DHT22;27912;51.828;5.688;2022-09-13T00:26:48;18.10;99.90
42245;DHT22;27912;51.828;5.688;2022-09-13T00:29:14;18.00;99.90
42245;DHT22;27912;51.828;5.688;2022-09-13T00:31:39;18.10;99.90
42245;DHT22;27912;51.828;5.688;2022-09-13T00:34:05;18.00;99.90
42245;DHT22;27912;51.828;5.688;2022-09-13T00:36:30;18.00;99.90
42245;DHT22;27912;51.828;5.688;2022-09-13T00:38:56;18.00;99.90
42245;DHT22;27912;51.828;5.688;2022-09-13T00:41:22;18.10;99.90
42245;DHT22;27912;51.828;5.688;2022-09-13T00:43:59;18.10;99.90
42245;DHT22;27912;51.828;5.688;2022-09-13T00:46:44;18.10;99.90
42245;DHT22;27912;51.828;5.688;2022-09-13T00:49:23;18.10;99.90
42245;DHT22;27912;51.828;5.688;2022-09-13T00:51:58;18.10;99.90
42245;DHT22;27912;51.828;5.688;2022-09-13T00:54:28;18.00;99.90
42245;DHT22;27912;51.828;5.688;2022-09-13T00:56:58;18.00;99.90
42245;DHT22;27912;51.828;5.688;2022-09-13T00:59:32;18.00;99.90
42245;DHT22;27912;51.828;5.688;2022-09-13T01:01:59;18.00;99.90
42245;DHT22;27912;51.828;5.688;2022-09-13T01:04:27;18.00;99.90
42245;DHT22;27912;51.828;5.688;2022-09-13T01:06:59;18.00;99.90
42245;DHT22;27912;51.828;5.688;2022-09-13T01:09:27;18.10;99.90
42245;DHT22;27912;51.828;5.688;2022-09-13T01:12:11;18.00;99.90
42245;DHT22;27912;51.828;5.688;2022-09-13T01:14:41;18.10;99.90
42245;DHT22;27912;51.828;5.688;2022-09-13T01:17:08;18.10;99.90
42245;DHT22;27912;51.828;5.688;2022-09-13T01:19:34;18.00;99.90
42245;DHT22;27912;51.828;5.688;2022-09-13T01:25:11;18.00;99.90
42245;DHT22;27912;51.828;5.688;2022-09-13T01:27:52;18.00;99.90
42245;DHT22;27912;51.828;5.688;2022-09-13T01:30:28;18.00;99.90
42245;DHT22;27912;51.828;5.688;2022-09-13T01:33:10;18.00;99.90
42245;DHT22;27912;51.828;5.688;2022-09-13T01:35:56;18.00;99.90
42245;DHT22;27912;51.828;5.688;2022-09-13T01:46:33;18.00;99.90
42245;DHT22;27912;51.828;5.688;2022-09-13T01:49:24;18.00;99.90
42245;DHT22;27912;51.828;5.688;2022-09-13T01:51:57;18.00;99.90
42245;DHT22;27912;51.828;5.688;2022-09-13T01:54:37;18.00;99.90
42245;DHT22;27912;51.828;5.688;2022-09-13T01:57:14;17.90;99.90
42245;DHT22;27912;51.828;5.688;2022-09-13T01:59:53;18.00;99.90
42245;DHT22;27912;51.828;5.688;2022-09-13T02:02:27;18.00;99.90
42245;DHT22;27912;51.828;5.688;2022-09-13T02:05:01;18.00;99.90
42245;DHT22;27912;51.828;5.688;2022-09-13T02:07:36;18.00;99.90
42245;DHT22;27912;51.828;5.688;2022-09-13T02:10:26;18.00;99.90
42245;DHT22;27912;51.828;5.688;2022-09-13T02:12:55;18.00;99.90
42245;DHT22;27912;51.828;5.688;2022-09-13T02:15:35;18.00;99.90
42245;DHT22;27912;51.828;5.688;2022-09-13T02:18:08;17.90;99.90
42245;DHT22;27912;51.828;5.688;2022-09-13T02:20:37;18.00;99.90
42245;DHT22;27912;51.828;5.688;2022-09-13T02:23:15;18.00;99.90
42245;DHT22;27912;51.828;5.688;2022-09-13T02:25:45;18.00;99.90
42245;DHT22;27912;51.828;5.688;2022-09-13T02:28:14;18.00;99.90
42245;DHT22;27912;51.828;5.688;2022-09-13T02:30:48;18.00;99.90
42245;DHT22;27912;51.828;5.688;2022-09-13T02:33:20;18.00;99.90
42245;DHT22;27912;51.828;5.688;2022-09-13T02:35:59;18.00;99.90
42245;DHT22;27912;51.828;5.688;2022-09-13T02:38:36;18.00;99.90
42245;DHT22;27912;51.828;5.688;2022-09-13T02:41:14;18.00;99.90
42245;DHT22;27912;51.828;5.688;2022-09-13T02:43:55;18.00;99.90
42245;DHT22;27912;51.828;5.688;2022-09-13T02:51:51;18.00;99.90
42245;DHT22;27912;51.828;5.688;2022-09-13T02:54:38;18.00;99.90
42245;DHT22;27912;51.828;5.688;2022-09-13T02:57:17;18.00;99.90
42245;DHT22;27912;51.828;5.688;2022-09-13T02:59:46;18.00;99.90
42245;DHT22;27912;51.828;5.688;2022-09-13T03:02:15;18.00;99.90
42245;DHT22;27912;51.828;5.688;2022-09-13T03:04:41;18.00;99.90
42245;DHT22;27912;51.828;5.688;2022-09-13T03:07:11;17.90;99.90
42245;DHT22;27912;51.828;5.688;2022-09-13T03:10:02;17.90;99.90
42245;DHT22;27912;51.828;5.688;2022-09-13T03:18:48;17.90;99.90
42245;DHT22;27912;51.828;5.688;2022-09-13T03:25:26;17.90;99.90
42245;DHT22;27912;51.828;5.688;2022-09-13T03:27:29;17.90;99.90
42245;DHT22;27912;51.828;5.688;2022-09-13T03:30:05;17.80;99.90
42245;DHT22;27912;51.828;5.688;2022-09-13T03:37:56;17.80;99.90
42245;DHT22;27912;51.828;5.688;2022-09-13T03:40:44;17.80;99.90
42245;DHT22;27912;51.828;5.688;2022-09-13T03:43:32;17.90;99.90
42245;DHT22;27912;51.828;5.688;2022-09-13T03:46:23;17.90;99.90
42245;DHT22;27912;51.828;5.688;2022-09-13T03:48:50;17.80;99.90
42245;DHT22;27912;51.828;5.688;2022-09-13T03:51:17;17.80;99.90
42245;DHT22;27912;51.828;5.688;2022-09-13T03:53:52;17.80;99.90
42245;DHT22;27912;51.828;5.688;2022-09-13T03:56:19;17.80;99.90
42245;DHT22;27912;51.828;5.688;2022-09-13T03:58:46;17.70;99.90
42245;DHT22;27912;51.828;5.688;2022-09-13T04:01:12;17.70;99.90
42245;DHT22;27912;51.828;5.688;2022-09-13T04:03:38;17.60;99.90
42245;DHT22;27912;51.828;5.688;2022-09-13T04:06:04;17.60;99.90
42245;DHT22;27912;51.828;5.688;2022-09-13T04:08:31;17.50;99.90
42245;DHT22;27912;51.828;5.688;2022-09-13T04:10:57;17.50;99.90
42245;DHT22;27912;51.828;5.688;2022-09-13T04:13:23;17.50;99.90
42245;DHT22;27912;51.828;5.688;2022-09-13T04:15:49;17.50;99.90
42245;DHT22;27912;51.828;5.688;2022-09-13T04:18:15;17.40;99.90
42245;DHT22;27912;51.828;5.688;2022-09-13T04:20:41;17.40;99.90
42245;DHT22;27912;51.828;5.688;2022-09-13T04:23:06;17.40;99.90
42245;DHT22;27912;51.828;5.688;2022-09-13T04:25:32;17.40;99.90
42245;DHT22;27912;51.828;5.688;2022-09-13T04:27:57;17.40;99.90
42245;DHT22;27912;51.828;5.688;2022-09-13T04:30:24;17.40;99.90
42245;DHT22;27912;51.828;5.688;2022-09-13T04:32:50;17.40;99.90
42245;DHT22;27912;51.828;5.688;2022-09-13T04:35:17;17.30;99.90
42245;DHT22;27912;51.828;5.688;2022-09-13T04:37:44;17.30;99.90
42245;DHT22;27912;51.828;5.688;2022-09-13T04:40:10;17.30;99.90
42245;DHT22;27912;51.828;5.688;2022-09-13T04:42:36;17.30;99.90
42245;DHT22;27912;51.828;5.688;2022-09-13T04:45:02;17.30;99.90
42245;DHT22;27912;51.828;5.688;2022-09-13T04:47:28;17.40;99.90
42245;DHT22;27912;51.828;5.688;2022-09-13T04:49:53;17.40;99.90
42245;DHT22;27912;51.828;5.688;2022-09-13T04:52:19;17.40;99.90
42245;DHT22;27912;51.828;5.688;2022-09-13T04:54:45;17.40;99.90
42245;DHT22;27912;51.828;5.688;2022-09-13T04:57:13;17.40;99.90
42245;DHT22;27912;51.828;5.688;2022-09-13T04:59:39;17.50;99.90
42245;DHT22;27912;51.828;5.688;2022-09-13T05:02:05;17.50;99.90
42245;DHT22;27912;51.828;5.688;2022-09-13T05:04:30;17.50;99.90
42245;DHT22;27912;51.828;5.688;2022-09-13T05:06:56;17.50;99.90
42245;DHT22;27912;51.828;5.688;2022-09-13T05:09:23;17.50;99.90
42245;DHT22;27912;51.828;5.688;2022-09-13T05:11:48;17.50;99.90
42245;DHT22;27912;51.828;5.688;2022-09-13T05:14:14;17.50;99.90
42245;DHT22;27912;51.828;5.688;2022-09-13T05:16:39;17.50;99.90
42245;DHT22;27912;51.828;5.688;2022-09-13T05:19:05;17.50;99.90
42245;DHT22;27912;51.828;5.688;2022-09-13T05:21:31;17.50;99.90
42245;DHT22;27912;51.828;5.688;2022-09-13T05:23:57;17.50;99.90
42245;DHT22;27912;51.828;5.688;2022-09-13T05:26:24;17.50;99.90
42245;DHT22;27912;51.828;5.688;2022-09-13T05:28:50;17.50;99.90
42245;DHT22;27912;51.828;5.688;2022-09-13T05:31:17;17.40;99.90
42245;DHT22;27912;51.828;5.688;2022-09-13T05:33:44;17.50;99.90
42245;DHT22;27912;51.828;5.688;2022-09-13T05:36:10;17.50;99.90
42245;DHT22;27912;51.828;5.688;2022-09-13T05:38:36;17.40;99.90
42245;DHT22;27912;51.828;5.688;2022-09-13T05:41:03;17.50;99.90
42245;DHT22;27912;51.828;5.688;2022-09-13T05:43:31;17.40;99.90
42245;DHT22;27912;51.828;5.688;2022-09-13T05:46:17;17.40;99.90
42245;DHT22;27912;51.828;5.688;2022-09-13T05:48:44;17.40;99.90
42245;DHT22;27912;51.828;5.688;2022-09-13T05:51:13;17.40;99.90
42245;DHT22;27912;51.828;5.688;2022-09-13T05:53:41;17.40;99.90
42245;DHT22;27912;51.828;5.688;2022-09-13T05:56:09;17.40;99.90
42245;DHT22;27912;51.828;5.688;2022-09-13T05:58:38;17.40;99.90
42245;DHT22;27912;51.828;5.688;2022-09-13T06:01:04;17.40;99.90
42245;DHT22;27912;51.828;5.688;2022-09-13T06:03:29;17.40;99.90
42245;DHT22;27912;51.828;5.688;2022-09-13T06:05:56;17.50;99.90
42245;DHT22;27912;51.828;5.688;2022-09-13T06:08:26;17.50;99.90
42245;DHT22;27912;51.828;5.688;2022-09-13T06:10:55;17.60;99.90
42245;DHT22;27912;51.828;5.688;2022-09-13T06:13:21;17.60;99.90
42245;DHT22;27912;51.828;5.688;2022-09-13T06:15:47;17.70;99.90
42245;DHT22;27912;51.828;5.688;2022-09-13T06:18:13;17.70;99.90
42245;DHT22;27912;51.828;5.688;2022-09-13T06:20:38;17.90;99.90
42245;DHT22;27912;51.828;5.688;2022-09-13T06:23:04;18.00;99.90
42245;DHT22;27912;51.828;5.688;2022-09-13T06:25:29;18.10;99.90
42245;DHT22;27912;51.828;5.688;2022-09-13T06:27:55;18.10;99.90
42245;DHT22;27912;51.828;5.688;2022-09-13T06:30:21;18.30;99.90
42245;DHT22;27912;51.828;5.688;2022-09-13T06:32:46;18.40;99.90
42245;DHT22;27912;51.828;5.688;2022-09-13T06:35:12;18.40;99.90
42245;DHT22;27912;51.828;5.688;2022-09-13T06:37:37;18.50;99.90
42245;DHT22;27912;51.828;5.688;2022-09-13T06:40:03;18.60;99.90
42245;DHT22;27912;51.828;5.688;2022-09-13T06:42:31;18.70;99.90
42245;DHT22;27912;51.828;5.688;2022-09-13T06:44:57;18.70;99.90
42245;DHT22;27912;51.828;5.688;2022-09-13T06:47:23;18.80;99.90
42245;DHT22;27912;51.828;5.688;2022-09-13T06:49:48;18.80;99.90
42245;DHT22;27912;51.828;5.688;2022-09-13T06:52:14;18.80;99.90
42245;DHT22;27912;51.828;5.688;2022-09-13T06:54:39;18.90;99.90
42245;DHT22;27912;51.828;5.688;2022-09-13T06:57:05;18.90;99.90
42245;DHT22;27912;51.828;5.688;2022-09-13T06:59:30;18.90;99.90
42245;DHT22;27912;51.828;5.688;2022-09-13T07:01:56;18.90;99.90
42245;DHT22;27912;51.828;5.688;2022-09-13T07:04:21;19.00;99.90
42245;DHT22;27912;51.828;5.688;2022-09-13T07:06:48;19.00;99.90
42245;DHT22;27912;51.828;5.688;2022-09-13T07:09:16;19.10;99.90
42245;DHT22;27912;51.828;5.688;2022-09-13T07:11:43;19.30;99.90
42245;DHT22;27912;51.828;5.688;2022-09-13T07:14:14;19.40;99.90
42245;DHT22;27912;51.828;5.688;2022-09-13T07:16:39;19.50;99.90
42245;DHT22;27912;51.828;5.688;2022-09-13T07:19:07;19.60;99.90
42245;DHT22;27912;51.828;5.688;2022-09-13T07:21:36;19.60;99.90
42245;DHT22;27912;51.828;5.688;2022-09-13T07:24:02;19.70;99.90
42245;DHT22;27912;51.828;5.688;2022-09-13T07:26:28;19.80;99.90
42245;DHT22;27912;51.828;5.688;2022-09-13T07:28:55;19.90;99.90
42245;DHT22;27912;51.828;5.688;2022-09-13T07:31:26;19.90;99.90
42245;DHT22;27912;51.828;5.688;2022-09-13T07:33:54;19.90;99.90
42245;DHT22;27912;51.828;5.688;2022-09-13T07:36:20;20.00;99.90
42245;DHT22;27912;51.828;5.688;2022-09-13T07:38:46;20.10;99.90
42245;DHT22;27912;51.828;5.688;2022-09-13T07:41:18;20.10;99.90
42245;DHT22;27912;51.828;5.688;2022-09-13T07:43:44;20.30;99.90
42245;DHT22;27912;51.828;5.688;2022-09-13T07:46:15;20.40;99.90
42245;DHT22;27912;51.828;5.688;2022-09-13T07:48:42;20.50;99.90
42245;DHT22;27912;51.828;5.688;2022-09-13T07:51:16;20.60;99.90
42245;DHT22;27912;51.828;5.688;2022-09-13T07:53:44;20.60;99.90
42245;DHT22;27912;51.828;5.688;2022-09-13T07:56:19;20.70;99.90
42245;DHT22;27912;51.828;5.688;2022-09-13T07:58:46;20.80;99.90
42245;DHT22;27912;51.828;5.688;2022-09-13T08:01:22;20.80;99.90
42245;DHT22;27912;51.828;5.688;2022-09-13T08:03:52;20.90;99.90
42245;DHT22;27912;51.828;5.688;2022-09-13T08:06:18;20.90;99.90
42245;DHT22;27912;51.828;5.688;2022-09-13T08:08:44;21.00;99.90
42245;DHT22;27912;51.828;5.688;2022-09-13T08:11:15;21.00;99.90
42245;DHT22;27912;51.828;5.688;2022-09-13T08:13:40;21.10;99.90
42245;DHT22;27912;51.828;5.688;2022-09-13T08:16:06;21.10;99.90
42245;DHT22;27912;51.828;5.688;2022-09-13T08:18:32;21.20;99.90
42245;DHT22;27912;51.828;5.688;2022-09-13T08:20:59;21.40;99.90
42245;DHT22;27912;51.828;5.688;2022-09-13T08:23:25;21.50;99.90
42245;DHT22;27912;51.828;5.688;2022-09-13T08:25:51;21.60;99.90
42245;DHT22;27912;51.828;5.688;2022-09-13T08:28:18;21.70;99.90
42245;DHT22;27912;51.828;5.688;2022-09-13T08:30:46;21.80;99.90
42245;DHT22;27912;51.828;5.688;2022-09-13T08:33:12;21.80;99.90
42245;DHT22;27912;51.828;5.688;2022-09-13T08:35:37;22.00;99.90
42245;DHT22;27912;51.828;5.688;2022-09-13T08:38:04;22.00;99.90
42245;DHT22;27912;51.828;5.688;2022-09-13T08:40:42;22.10;99.90
42245;DHT22;27912;51.828;5.688;2022-09-13T08:48:38;22.30;99.90
42245;DHT22;27912;51.828;5.688;2022-09-13T08:51:08;22.40;99.90
42245;DHT22;27912;51.828;5.688;2022-09-13T08:53:46;22.50;99.90
42245;DHT22;27912;51.828;5.688;2022-09-13T08:56:21;22.70;99.90
42245;DHT22;27912;51.828;5.688;2022-09-13T08:59:02;22.80;99.90
42245;DHT22;27912;51.828;5.688;2022-09-13T09:07:08;23.20;99.90
42245;DHT22;27912;51.828;5.688;2022-09-13T09:09:40;23.10;99.90
42245;DHT22;27912;51.828;5.688;2022-09-13T09:15:14;23.10;99.90
42245;DHT22;27912;51.828;5.688;2022-09-13T09:17:43;23.10;99.90
42245;DHT22;27912;51.828;5.688;2022-09-13T09:23:01;23.30;99.90
42245;DHT22;27912;51.828;5.688;2022-09-13T09:25:27;23.40;99.90
42245;DHT22;27912;51.828;5.688;2022-09-13T09:27:54;23.60;99.90
42245;DHT22;27912;51.828;5.688;2022-09-13T09:30:20;23.70;99.90
42245;DHT22;27912;51.828;5.688;2022-09-13T09:33:01;23.80;99.90
42245;DHT22;27912;51.828;5.688;2022-09-13T09:35:54;23.80;99.90
42245;DHT22;27912;51.828;5.688;2022-09-13T09:38:39;23.80;99.90
42245;DHT22;27912;51.828;5.688;2022-09-13T09:43:52;23.80;99.90
42245;DHT22;27912;51.828;5.688;2022-09-13T09:46:23;23.80;99.90
42245;DHT22;27912;51.828;5.688;2022-09-13T09:51:59;23.70;99.90
42245;DHT22;27912;51.828;5.688;2022-09-13T09:54:26;23.60;99.90
42245;DHT22;27912;51.828;5.688;2022-09-13T09:56:55;23.70;99.90
42245;DHT22;27912;51.828;5.688;2022-09-13T09:59:29;23.50;99.90
42245;DHT22;27912;51.828;5.688;2022-09-13T10:02:10;23.50;99.90
42245;DHT22;27912;51.828;5.688;2022-09-13T10:04:38;23.50;99.90
42245;DHT22;27912;51.828;5.688;2022-09-13T10:07:32;23.50;99.90
42245;DHT22;27912;51.828;5.688;2022-09-13T10:10:02;23.70;99.90
42245;DHT22;27912;51.828;5.688;2022-09-13T10:12:34;23.90;99.90
42245;DHT22;27912;51.828;5.688;2022-09-13T10:15:15;24.00;99.90
42245;DHT22;27912;51.828;5.688;2022-09-13T10:18:01;24.10;99.90
42245;DHT22;27912;51.828;5.688;2022-09-13T10:20:28;24.20;99.90
42245;DHT22;27912;51.828;5.688;2022-09-13T10:23:10;24.30;99.90
42245;DHT22;27912;51.828;5.688;2022-09-13T10:25:36;24.40;99.90
42245;DHT22;27912;51.828;5.688;2022-09-13T10:28:03;24.50;99.90
42245;DHT22;27912;51.828;5.688;2022-09-13T10:30:45;24.70;99.90
42245;DHT22;27912;51.828;5.688;2022-09-13T10:33:25;24.90;99.90
42245;DHT22;27912;51.828;5.688;2022-09-13T10:35:53;24.90;99.90
42245;DHT22;27912;51.828;5.688;2022-09-13T10:38:31;25.00;99.90
42245;DHT22;27912;51.828;5.688;2022-09-13T10:41:00;25.00;99.90
42245;DHT22;27912;51.828;5.688;2022-09-13T10:43:28;25.10;99.90
42245;DHT22;27912;51.828;5.688;2022-09-13T10:45:54;25.40;99.90
42245;DHT22;27912;51.828;5.688;2022-09-13T10:48:21;25.50;99.90
42245;DHT22;27912;51.828;5.688;2022-09-13T10:51:01;25.50;99.90
42245;DHT22;27912;51.828;5.688;2022-09-13T10:53:38;25.50;99.90
42245;DHT22;27912;51.828;5.688;2022-09-13T10:56:17;25.50;99.90
42245;DHT22;27912;51.828;5.688;2022-09-13T10:58:43;25.50;99.90
42245;DHT22;27912;51.828;5.688;2022-09-13T11:01:27;25.30;99.90
42245;DHT22;27912;51.828;5.688;2022-09-13T11:04:32;25.20;99.90
42245;DHT22;27912;51.828;5.688;2022-09-13T11:07:23;25.10;99.90
42245;DHT22;27912;51.828;5.688;2022-09-13T11:12:48;25.20;99.90
42245;DHT22;27912;51.828;5.688;2022-09-13T11:21:12;25.10;99.90
42245;DHT22;27912;51.828;5.688;2022-09-13T11:35:59;24.80;99.90
42245;DHT22;27912;51.828;5.688;2022-09-13T11:41:45;25.00;99.90
42245;DHT22;27912;51.828;5.688;2022-09-13T11:50:24;25.20;99.20
42245;DHT22;27912;51.828;5.688;2022-09-13T11:56:00;24.80;99.70
42245;DHT22;27912;51.828;5.688;2022-09-13T11:58:36;24.90;99.70
42245;DHT22;27912;51.828;5.688;2022-09-13T12:01:08;25.00;99.50
42245;DHT22;27912;51.828;5.688;2022-09-13T12:04:03;25.00;99.40
42245;DHT22;27912;51.828;5.688;2022-09-13T12:06:44;25.00;99.60
42245;DHT22;27912;51.828;5.688;2022-09-13T12:09:24;25.00;99.30
42245;DHT22;27912;51.828;5.688;2022-09-13T12:11:57;25.00;99.50
42245;DHT22;27912;51.828;5.688;2022-09-13T12:14:28;25.00;99.20
42245;DHT22;27912;51.828;5.688;2022-09-13T12:17:03;25.10;99.20
42245;DHT22;27912;51.828;5.688;2022-09-13T12:19:46;25.40;99.00
42245;DHT22;27912;51.828;5.688;2022-09-13T12:22:12;25.60;98.60
42245;DHT22;27912;51.828;5.688;2022-09-13T12:24:50;25.80;98.40
42245;DHT22;27912;51.828;5.688;2022-09-13T12:27:39;26.10;97.50
42245;DHT22;27912;51.828;5.688;2022-09-13T12:30:17;26.20;97.20
42245;DHT22;27912;51.828;5.688;2022-09-13T12:32:45;26.40;97.00
42245;DHT22;27912;51.828;5.688;2022-09-13T12:40:42;26.30;96.40
42245;DHT22;27912;51.828;5.688;2022-09-13T12:43:14;26.20;96.40
42245;DHT22;27912;51.828;5.688;2022-09-13T12:46:08;26.10;96.50
42245;DHT22;27912;51.828;5.688;2022-09-13T12:51:40;25.90;96.50
42245;DHT22;27912;51.828;5.688;2022-09-13T12:57:23;25.70;96.70
42245;DHT22;27912;51.828;5.688;2022-09-13T13:00:16;25.80;96.70
42245;DHT22;27912;51.828;5.688;2022-09-13T13:03:02;26.10;96.50
42245;DHT22;27912;51.828;5.688;2022-09-13T13:05:43;26.20;95.90
42245;DHT22;27912;51.828;5.688;2022-09-13T13:08:39;26.20;95.90
42245;DHT22;27912;51.828;5.688;2022-09-13T13:11:12;26.30;95.60
42245;DHT22;27912;51.828;5.688;2022-09-13T13:13:43;26.20;95.20
42245;DHT22;27912;51.828;5.688;2022-09-13T13:16:29;26.20;95.10
42245;DHT22;27912;51.828;5.688;2022-09-13T13:19:01;26.20;94.90
42245;DHT22;27912;51.828;5.688;2022-09-13T13:26:58;26.40;95.10
42245;DHT22;27912;51.828;5.688;2022-09-13T13:29:31;26.60;94.60
42245;DHT22;27912;51.828;5.688;2022-09-13T13:34:48;27.00;93.80
42245;DHT22;27912;51.828;5.688;2022-09-13T13:39:44;27.00;93.70
42245;DHT22;27912;51.828;5.688;2022-09-13T13:42:22;27.00;93.50
42245;DHT22;27912;51.828;5.688;2022-09-13T13:57:23;25.90;94.60
42245;DHT22;27912;51.828;5.688;2022-09-13T13:59:54;25.80;94.80
42245;DHT22;27912;51.828;5.688;2022-09-13T14:02:31;25.70;94.90
42245;DHT22;27912;51.828;5.688;2022-09-13T14:10:32;25.20;95.10
42245;DHT22;27912;51.828;5.688;2022-09-13T14:13:24;25.00;95.50
42245;DHT22;27912;51.828;5.688;2022-09-13T14:16:11;24.90;95.50
42245;DHT22;27912;51.828;5.688;2022-09-13T14:18:56;24.70;95.80
42245;DHT22;27912;51.828;5.688;2022-09-13T14:21:27;24.70;95.90
42245;DHT22;27912;51.828;5.688;2022-09-13T14:24:22;24.60;96.20
42245;DHT22;27912;51.828;5.688;2022-09-13T14:26:52;24.60;96.30
42245;DHT22;27912;51.828;5.688;2022-09-13T14:29:21;24.50;96.20
42245;DHT22;27912;51.828;5.688;2022-09-13T14:31:51;24.50;96.40
42245;DHT22;27912;51.828;5.688;2022-09-13T14:34:23;24.50;96.60
42245;DHT22;27912;51.828;5.688;2022-09-13T14:36:58;24.50;96.50
42245;DHT22;27912;51.828;5.688;2022-09-13T14:39:24;24.50;96.20
42245;DHT22;27912;51.828;5.688;2022-09-13T14:42:14;24.60;96.30
42245;DHT22;27912;51.828;5.688;2022-09-13T14:44:43;24.80;96.10
42245;DHT22;27912;51.828;5.688;2022-09-13T14:47:36;24.90;96.10
42245;DHT22;27912;51.828;5.688;2022-09-13T14:50:12;24.90;95.90
42245;DHT22;27912;51.828;5.688;2022-09-13T14:52:48;25.00;96.00
42245;DHT22;27912;51.828;5.688;2022-09-13T14:55:18;25.00;95.70
42245;DHT22;27912;51.828;5.688;2022-09-13T14:57:51;25.00;95.50
42245;DHT22;27912;51.828;5.688;2022-09-13T15:00:21;25.00;95.50
42245;DHT22;27912;51.828;5.688;2022-09-13T15:02:51;24.90;95.40
42245;DHT22;27912;51.828;5.688;2022-09-13T15:05:18;24.90;95.50
42245;DHT22;27912;51.828;5.688;2022-09-13T15:07:45;24.90;95.30
42245;DHT22;27912;51.828;5.688;2022-09-13T15:12:49;24.90;95.30
42245;DHT22;27912;51.828;5.688;2022-09-13T15:15:42;25.00;95.30
42245;DHT22;27912;51.828;5.688;2022-09-13T15:23:29;24.80;94.70
42245;DHT22;27912;51.828;5.688;2022-09-13T15:31:11;24.80;94.30
42245;DHT22;27912;51.828;5.688;2022-09-13T15:33:44;24.80;94.10
42245;DHT22;27912;51.828;5.688;2022-09-13T15:36:34;24.70;94.00
42245;DHT22;27912;51.828;5.688;2022-09-13T15:41:36;24.70;93.40
42245;DHT22;27912;51.828;5.688;2022-09-13T15:44:04;24.70;93.30
42245;DHT22;27912;51.828;5.688;2022-09-13T15:46:31;24.60;93.40
42245;DHT22;27912;51.828;5.688;2022-09-13T15:49:01;24.50;93.20
42245;DHT22;27912;51.828;5.688;2022-09-13T15:51:28;24.40;93.20
42245;DHT22;27912;51.828;5.688;2022-09-13T15:53:54;24.30;93.00
42245;DHT22;27912;51.828;5.688;2022-09-13T15:56:25;24.20;93.10
42245;DHT22;27912;51.828;5.688;2022-09-13T15:58:52;24.10;93.30
42245;DHT22;27912;51.828;5.688;2022-09-13T16:01:18;24.00;93.40
42245;DHT22;27912;51.828;5.688;2022-09-13T16:03:43;23.90;93.50
42245;DHT22;27912;51.828;5.688;2022-09-13T16:06:09;23.80;93.50
42245;DHT22;27912;51.828;5.688;2022-09-13T16:08:38;23.70;93.70
42245;DHT22;27912;51.828;5.688;2022-09-13T16:11:04;23.60;93.70
42245;DHT22;27912;51.828;5.688;2022-09-13T16:13:30;23.50;93.80
42245;DHT22;27912;51.828;5.688;2022-09-13T16:15:56;23.50;93.80
42245;DHT22;27912;51.828;5.688;2022-09-13T16:18:22;23.40;93.70
42245;DHT22;27912;51.828;5.688;2022-09-13T16:20:48;23.30;93.90
42245;DHT22;27912;51.828;5.688;2022-09-13T16:23:14;23.30;94.00
42245;DHT22;27912;51.828;5.688;2022-09-13T16:25:40;23.30;94.20
42245;DHT22;27912;51.828;5.688;2022-09-13T16:28:06;23.30;94.30
42245;DHT22;27912;51.828;5.688;2022-09-13T16:30:32;23.20;94.40
42245;DHT22;27912;51.828;5.688;2022-09-13T16:32:58;23.10;94.40
42245;DHT22;27912;51.828;5.688;2022-09-13T16:35:29;23.10;94.40
42245;DHT22;27912;51.828;5.688;2022-09-13T16:37:55;23.00;94.40
42245;DHT22;27912;51.828;5.688;2022-09-13T16:40:21;22.90;94.50
42245;DHT22;27912;51.828;5.688;2022-09-13T16:42:47;22.80;94.70
42245;DHT22;27912;51.828;5.688;2022-09-13T16:45:13;22.70;94.70
42245;DHT22;27912;51.828;5.688;2022-09-13T16:47:39;22.60;94.80
42245;DHT22;27912;51.828;5.688;2022-09-13T16:50:05;22.50;94.80
42245;DHT22;27912;51.828;5.688;2022-09-13T16:52:32;22.40;94.70
42245;DHT22;27912;51.828;5.688;2022-09-13T16:54:59;22.30;94.90
42245;DHT22;27912;51.828;5.688;2022-09-13T16:57:25;22.20;94.90
42245;DHT22;27912;51.828;5.688;2022-09-13T16:59:52;22.10;95.00
42245;DHT22;27912;51.828;5.688;2022-09-13T17:02:19;22.10;95.10
42245;DHT22;27912;51.828;5.688;2022-09-13T17:04:44;22.00;95.10
42245;DHT22;27912;51.828;5.688;2022-09-13T17:07:11;21.80;95.10
42245;DHT22;27912;51.828;5.688;2022-09-13T17:09:37;21.70;95.20
42245;DHT22;27912;51.828;5.688;2022-09-13T17:12:05;21.70;95.20
42245;DHT22;27912;51.828;5.688;2022-09-13T17:14:31;21.60;95.20
42245;DHT22;27912;51.828;5.688;2022-09-13T17:16:58;21.60;95.20
42245;DHT22;27912;51.828;5.688;2022-09-13T17:19:27;21.40;95.20
42245;DHT22;27912;51.828;5.688;2022-09-13T17:21:56;21.30;95.60
42245;DHT22;27912;51.828;5.688;2022-09-13T17:24:27;21.30;95.50
42245;DHT22;27912;51.828;5.688;2022-09-13T17:26:53;21.20;95.50
42245;DHT22;27912;51.828;5.688;2022-09-13T17:29:19;21.20;95.60
42245;DHT22;27912;51.828;5.688;2022-09-13T17:31:45;21.10;95.70
42245;DHT22;27912;51.828;5.688;2022-09-13T17:34:11;21.00;95.90
42245;DHT22;27912;51.828;5.688;2022-09-13T17:36:39;20.90;96.00
42245;DHT22;27912;51.828;5.688;2022-09-13T17:39:06;20.90;96.00
42245;DHT22;27912;51.828;5.688;2022-09-13T17:41:31;20.80;96.20
42245;DHT22;27912;51.828;5.688;2022-09-13T17:43:57;20.70;96.30
42245;DHT22;27912;51.828;5.688;2022-09-13T17:46:25;20.70;96.40
42245;DHT22;27912;51.828;5.688;2022-09-13T17:48:54;20.60;96.50
42245;DHT22;27912;51.828;5.688;2022-09-13T17:51:22;20.60;96.50
42245;DHT22;27912;51.828;5.688;2022-09-13T17:53:49;20.50;96.50
42245;DHT22;27912;51.828;5.688;2022-09-13T17:56:21;20.40;96.70
42245;DHT22;27912;51.828;5.688;2022-09-13T17:58:47;20.30;96.80
42245;DHT22;27912;51.828;5.688;2022-09-13T18:01:13;20.20;96.80
42245;DHT22;27912;51.828;5.688;2022-09-13T18:03:39;20.10;96.90
42245;DHT22;27912;51.828;5.688;2022-09-13T18:06:07;20.00;97.10
42245;DHT22;27912;51.828;5.688;2022-09-13T18:08:35;20.00;97.10
42245;DHT22;27912;51.828;5.688;2022-09-13T18:11:04;19.90;97.10
42245;DHT22;27912;51.828;5.688;2022-09-13T18:13:30;19.80;97.20
42245;DHT22;27912;51.828;5.688;2022-09-13T18:16:21;19.70;97.30